createdAt,value
2022-09-15T00:01:54.928Z,20.67
2022-09-15T00:04:22.677Z,15.02
2022-09-15T00:06:50.274Z,21.10
2022-09-15T00:09:17.849Z,20.08
2022-09-15T00:11:50.083Z,17.83
2022-09-15T00:14:18.726Z,18.58
2022-09-15T00:16:49.230Z,18.73
2022-09-15T00:19:17.361Z,20.75
2022-09-15T00:21:47.487Z,21.15
2022-09-15T00:24:15.118Z,19.35
2022-09-15T00:26:59.784Z,15.05
2022-09-15T00:29:27.488Z,22.40
2022-09-15T00:31:55.741Z,14.20
2022-09-15T00:36:50.852Z,19.45
2022-09-15T00:39:18.712Z,21.25
2022-09-15T00:41:46.374Z,18.17
2022-09-15T00:44:21.208Z,17.95
2022-09-15T00:47:09.718Z,20.45
2022-09-15T00:49:41.571Z,18.42
2022-09-15T00:52:15.753Z,22.70
2022-09-15T00:54:55.463Z,17.85
2022-09-15T00:57:31.689Z,22.80
2022-09-15T01:00:02.642Z,20.08
2022-09-15T01:02:33.828Z,20.92
2022-09-15T01:05:04.795Z,19.00
2022-09-15T01:07:46.157Z,19.17
2022-09-15T01:10:26.049Z,21.27
2022-09-15T01:12:57.160Z,25.98
2022-09-15T01:15:31.148Z,19.77
2022-09-15T01:18:20.813Z,23.08
2022-09-15T01:21:02.668Z,20.35
2022-09-15T01:24:03.235Z,22.45
2022-09-15T01:26:58.649Z,20.10
2022-09-15T01:29:43.462Z,20.63
2022-09-15T01:32:58.649Z,24.23
2022-09-15T01:35:35.432Z,23.67
2022-09-15T01:38:39.583Z,22.13
2022-09-15T01:41:31.938Z,23.38
2022-09-15T01:44:15.723Z,25.65
2022-09-15T01:46:50.298Z,28.25
2022-09-15T01:49:25.113Z,25.00
2022-09-15T01:51:54.720Z,25.35
2022-09-15T01:54:40.078Z,30.55
2022-09-15T01:57:10.180Z,28.05
2022-09-15T01:59:37.781Z,29.67
2022-09-15T02:02:12.690Z,25.40
2022-09-15T02:04:58.179Z,29.55
2022-09-15T02:07:36.820Z,33.75
2022-09-15T02:10:17.749Z,33.58
2022-09-15T02:12:50.713Z,32.95
2022-09-15T02:15:33.384Z,31.50
2022-09-15T02:18:05.006Z,30.92
2022-09-15T02:20:43.226Z,34.17
2022-09-15T02:23:39.727Z,33.97
2022-09-15T02:26:14.079Z,35.92
2022-09-15T02:28:44.344Z,37.85
2022-09-15T02:31:15.280Z,33.13
2022-09-15T02:33:48.842Z,35.67
2022-09-15T02:36:19.886Z,35.45
2022-09-15T02:38:53.017Z,35.72
2022-09-15T02:41:20.971Z,48.42
2022-09-15T02:43:50.078Z,35.30
2022-09-15T02:46:21.246Z,35.83
2022-09-15T02:48:49.092Z,40.67
2022-09-15T02:51:24.087Z,39.53
2022-09-15T02:53:51.841Z,41.08
2022-09-15T02:56:19.471Z,36.92
2022-09-15T02:58:47.234Z,36.10
2022-09-15T03:01:15.730Z,44.67
2022-09-15T03:03:45.024Z,36.38
2022-09-15T03:06:16.508Z,39.72
2022-09-15T03:08:48.918Z,37.65
2022-09-15T03:11:19.373Z,30.27
2022-09-15T03:13:47.631Z,32.90
2022-09-15T03:18:43.526Z,31.92
2022-09-15T03:21:13.580Z,32.00
2022-09-15T03:23:42.055Z,31.33
2022-09-15T03:26:10.604Z,33.83
2022-09-15T03:28:39.022Z,33.15
2022-09-15T03:31:08.113Z,35.25
2022-09-15T03:33:36.449Z,30.95
2022-09-15T03:41:01.600Z,35.97
2022-09-15T03:43:30.672Z,39.67
2022-09-15T03:45:59.162Z,38.03
2022-09-15T03:48:28.399Z,37.22
2022-09-15T03:50:55.973Z,32.92
2022-09-15T03:53:23.713Z,37.30
2022-09-15T03:55:51.632Z,34.13
2022-09-15T03:58:19.627Z,35.90
2022-09-15T04:00:47.549Z,33.92
2022-09-15T04:03:15.171Z,29.83
2022-09-15T04:05:42.797Z,33.05
2022-09-15T04:08:13.063Z,35.60
2022-09-15T04:10:41.314Z,37.47
2022-09-15T04:15:36.204Z,32.60
2022-09-15T04:18:04.961Z,37.72
2022-09-15T04:20:38.186Z,37.58
2022-09-15T04:23:05.750Z,35.40
2022-09-15T04:25:33.305Z,31.23
2022-09-15T04:28:00.952Z,34.00
2022-09-15T04:30:28.638Z,29.38
2022-09-15T04:32:56.279Z,36.20
2022-09-15T04:35:23.803Z,37.08
2022-09-15T04:37:51.587Z,38.72
2022-09-15T04:40:21.550Z,42.17
2022-09-15T04:42:49.144Z,35.53
2022-09-15T04:45:17.059Z,34.90
2022-09-15T04:50:12.612Z,29.90
2022-09-15T04:52:40.293Z,38.05
2022-09-15T04:55:08.295Z,38.05
2022-09-15T04:57:35.821Z,36.35
2022-09-15T05:00:06.591Z,38.03
2022-09-15T05:02:34.130Z,33.67
2022-09-15T05:05:02.198Z,41.75
2022-09-15T05:07:29.809Z,40.10
2022-09-15T05:09:57.379Z,39.35
2022-09-15T05:12:24.881Z,35.67
2022-09-15T05:14:52.439Z,36.78
2022-09-15T05:17:21.475Z,34.40
2022-09-15T05:19:51.670Z,42.90
2022-09-15T05:22:19.195Z,34.58
2022-09-15T05:24:47.311Z,35.25
2022-09-15T05:27:14.929Z,36.70
2022-09-15T05:29:43.106Z,40.97
2022-09-15T05:32:13.798Z,39.15
2022-09-15T05:34:41.412Z,30.83
2022-09-15T05:37:10.351Z,30.92
2022-09-15T05:39:41.080Z,26.70
2022-09-15T05:42:09.027Z,24.77
2022-09-15T05:44:36.584Z,27.85
2022-09-15T05:47:04.550Z,32.22
2022-09-15T05:49:32.927Z,26.83
2022-09-15T05:52:00.599Z,19.88
2022-09-15T05:54:28.237Z,25.85
2022-09-15T05:56:58.859Z,26.05
2022-09-15T05:59:26.472Z,24.33
2022-09-15T06:01:54.185Z,19.67
2022-09-15T06:04:21.896Z,20.73
2022-09-15T06:06:49.453Z,25.02
2022-09-15T06:09:17.060Z,21.35
2022-09-15T06:11:45.353Z,20.23
2022-09-15T06:14:13.557Z,19.75
2022-09-15T06:16:41.851Z,25.75
2022-09-15T06:19:09.428Z,19.80
2022-09-15T06:21:37.037Z,18.88
2022-09-15T06:24:07.080Z,19.73
2022-09-15T06:26:35.029Z,17.17
2022-09-15T06:29:05.198Z,19.75
2022-09-15T06:31:34.171Z,16.25
2022-09-15T06:34:03.787Z,23.63
2022-09-15T06:36:31.688Z,19.75
2022-09-15T06:38:59.791Z,18.98
2022-09-15T06:42:01.358Z,19.10
2022-09-15T06:44:29.931Z,19.50
2022-09-15T06:46:58.391Z,15.05
2022-09-15T06:49:31.267Z,23.52
2022-09-15T06:52:01.900Z,12.45
2022-09-15T06:54:29.538Z,14.45
2022-09-15T06:56:57.077Z,15.23
2022-09-15T06:59:24.659Z,16.20
2022-09-15T07:01:54.712Z,11.60
2022-09-15T07:04:23.552Z,13.40
2022-09-15T07:07:19.430Z,11.48
2022-09-15T07:13:23.604Z,10.95
2022-09-15T07:16:01.114Z,15.20
2022-09-15T07:18:38.579Z,12.20
2022-09-15T07:21:18.346Z,15.20
2022-09-15T07:23:50.639Z,10.27
2022-09-15T07:26:27.632Z,15.80
2022-09-15T07:28:58.197Z,9.38
2022-09-15T07:31:29.427Z,13.27
2022-09-15T07:33:59.094Z,12.30
2022-09-15T07:36:26.674Z,16.77
2022-09-15T07:39:03.720Z,14.27
2022-09-15T07:41:42.104Z,12.10
2022-09-15T07:44:47.018Z,11.00
2022-09-15T07:47:23.567Z,18.13
2022-09-15T07:50:18.265Z,10.43
2022-09-15T07:57:09.327Z,10.95
2022-09-15T08:00:52.818Z,12.60
2022-09-15T08:04:35.011Z,12.65
2022-09-15T08:10:41.178Z,9.52
2022-09-15T08:13:54.916Z,15.75
2022-09-15T08:16:25.209Z,16.27
2022-09-15T08:19:07.923Z,14.18
2022-09-15T08:21:38.875Z,13.70
2022-09-15T08:24:09.469Z,16.77
2022-09-15T08:26:38.463Z,20.42
2022-09-15T08:29:09.202Z,12.90
2022-09-15T08:31:52.422Z,18.10
2022-09-15T08:34:44.408Z,10.80
2022-09-15T08:37:31.809Z,13.80
2022-09-15T08:40:32.636Z,15.80
2022-09-15T08:43:14.297Z,15.02
2022-09-15T08:45:53.393Z,20.00
2022-09-15T08:48:27.643Z,14.60
2022-09-15T08:51:02.729Z,20.42
2022-09-15T08:53:48.128Z,19.17
2022-09-15T08:58:48.668Z,16.65
2022-09-15T09:01:29.907Z,18.10
2022-09-15T09:04:17.530Z,18.63
2022-09-15T09:07:03.374Z,18.50
2022-09-15T09:09:57.618Z,19.83
2022-09-15T09:12:47.092Z,20.23
2022-09-15T09:15:34.162Z,19.38
2022-09-15T09:18:33.887Z,18.33
2022-09-15T09:21:26.601Z,16.67
2022-09-15T09:24:17.550Z,18.02
2022-09-15T09:26:55.411Z,19.05
2022-09-15T09:29:58.831Z,18.40
2022-09-15T09:33:13.288Z,17.80
2022-09-15T09:35:56.875Z,22.42
2022-09-15T09:38:35.786Z,16.02
2022-09-15T09:41:26.060Z,12.90
2022-09-15T09:43:58.156Z,21.77
2022-09-15T09:46:31.670Z,14.93
2022-09-15T09:49:30.274Z,20.95
2022-09-15T09:52:03.565Z,19.30
2022-09-15T09:54:42.246Z,17.90
2022-09-15T09:57:31.945Z,13.45
2022-09-15T09:59:59.923Z,19.50
2022-09-15T10:02:28.855Z,17.55
2022-09-15T10:05:18.421Z,17.13
2022-09-15T10:07:47.644Z,16.50
2022-09-15T10:10:29.871Z,15.98
2022-09-15T10:13:03.710Z,15.38
2022-09-15T10:15:40.527Z,19.63
2022-09-15T10:18:37.534Z,16.67
2022-09-15T10:21:08.112Z,18.73
2022-09-15T10:23:36.287Z,15.55
2022-09-15T10:26:16.210Z,14.02
2022-09-15T10:28:45.490Z,15.35
2022-09-15T10:31:27.525Z,16.08
2022-09-15T10:33:55.339Z,12.65
2022-09-15T10:36:33.071Z,17.77
2022-09-15T10:39:38.932Z,15.48
2022-09-15T10:42:28.154Z,16.00
2022-09-15T10:45:47.404Z,13.40
2022-09-15T10:48:30.270Z,23.90
2022-09-15T10:51:22.841Z,17.02
2022-09-15T10:54:19.692Z,12.45
2022-09-15T10:56:52.249Z,14.30
2022-09-15T10:59:36.876Z,19.13
2022-09-15T11:02:30.382Z,16.77
2022-09-15T11:05:22.623Z,18.13
2022-09-15T11:08:26.687Z,12.70
2022-09-15T11:11:40.536Z,14.93
2022-09-15T11:14:57.930Z,14.75
2022-09-15T11:17:43.552Z,12.55
2022-09-15T11:20:24.484Z,12.82
2022-09-15T11:23:05.749Z,12.00
2022-09-15T11:25:43.787Z,15.30
2022-09-15T11:28:35.586Z,10.73
2022-09-15T11:31:18.448Z,12.45
2022-09-15T11:34:03.012Z,12.38
2022-09-15T11:36:40.601Z,17.25
2022-09-15T11:39:36.685Z,9.98
2022-09-15T11:42:18.344Z,10.70
2022-09-15T11:44:51.698Z,11.63
2022-09-15T11:47:40.734Z,10.95
2022-09-15T11:50:23.131Z,15.27
2022-09-15T11:53:10.390Z,11.73
2022-09-15T11:56:08.263Z,11.80
2022-09-15T11:59:17.272Z,12.05
2022-09-15T12:01:55.259Z,11.05
2022-09-15T12:07:29.750Z,12.88
2022-09-15T12:10:30.297Z,11.48
2022-09-15T12:13:10.734Z,9.48
2022-09-15T12:15:40.688Z,10.20
2022-09-15T12:18:40.812Z,9.50
2022-09-15T12:21:42.340Z,9.20
2022-09-15T12:24:49.712Z,11.07
2022-09-15T12:27:22.371Z,8.52
2022-09-15T12:30:03.698Z,10.38
2022-09-15T12:32:34.888Z,11.50
2022-09-15T12:35:30.201Z,11.88
2022-09-15T12:38:01.242Z,10.05
2022-09-15T12:40:35.965Z,10.48
2022-09-15T12:43:20.967Z,11.40
2022-09-15T12:46:19.501Z,12.27
2022-09-15T12:48:47.894Z,11.35
2022-09-15T12:51:29.301Z,10.43
2022-09-15T12:54:25.712Z,9.48
2022-09-15T12:57:13.311Z,10.30
2022-09-15T13:00:19.689Z,13.32
2022-09-15T13:02:58.297Z,11.68
2022-09-15T13:05:46.210Z,10.48
2022-09-15T13:11:11.508Z,14.85
2022-09-15T13:14:14.608Z,11.02
2022-09-15T13:17:16.687Z,7.85
2022-09-15T13:20:15.443Z,6.75
2022-09-15T13:22:58.898Z,7.18
2022-09-15T13:25:43.079Z,8.40
2022-09-15T13:28:18.252Z,10.48
2022-09-15T13:31:20.849Z,12.32
2022-09-15T13:38:07.812Z,7.95
2022-09-15T13:41:22.327Z,9.27
2022-09-15T13:44:02.404Z,9.10
2022-09-15T13:46:59.596Z,9.93
2022-09-15T13:49:40.954Z,10.13
2022-09-15T13:55:37.254Z,12.13
2022-09-15T14:01:15.570Z,13.77
2022-09-15T14:03:53.888Z,11.40
2022-09-15T14:06:46.988Z,11.38
2022-09-15T14:09:28.724Z,9.27
2022-09-15T14:12:08.078Z,8.27
2022-09-15T14:15:20.015Z,11.55
2022-09-15T14:17:48.904Z,9.80
2022-09-15T14:23:28.428Z,10.07
2022-09-15T14:26:19.909Z,8.27
2022-09-15T14:29:04.249Z,7.68
2022-09-15T14:31:41.061Z,7.07
2022-09-15T14:34:31.241Z,9.05
2022-09-15T14:37:32.133Z,11.93
2022-09-15T14:40:06.030Z,9.30
2022-09-15T14:42:41.059Z,8.13
2022-09-15T14:48:11.149Z,6.65
2022-09-15T14:50:41.845Z,7.93
2022-09-15T14:53:19.367Z,6.82
2022-09-15T14:56:07.724Z,6.45
2022-09-15T14:58:49.330Z,7.70
2022-09-15T15:01:36.754Z,7.95
2022-09-15T15:04:10.439Z,9.65
2022-09-15T15:07:05.313Z,12.13
2022-09-15T15:09:40.437Z,8.70
2022-09-15T15:12:18.604Z,9.98
2022-09-15T15:14:56.274Z,10.57
2022-09-15T15:17:39.405Z,10.82
2022-09-15T15:20:20.863Z,13.13
2022-09-15T15:23:16.779Z,10.18
2022-09-15T15:25:45.804Z,10.20
2022-09-15T15:28:33.598Z,9.63
2022-09-15T15:31:20.420Z,8.60
2022-09-15T15:33:59.569Z,9.57
2022-09-15T15:36:50.452Z,11.13
2022-09-15T15:39:32.839Z,11.75
2022-09-15T15:42:11.085Z,9.60
2022-09-15T15:44:41.480Z,10.40
2022-09-15T15:47:12.189Z,9.20
2022-09-15T15:50:02.205Z,7.30
2022-09-15T15:52:27.616Z,11.57
2022-09-15T15:54:55.273Z,6.97
2022-09-15T15:57:30.255Z,11.57
2022-09-15T16:00:00.447Z,9.25
2022-09-15T16:02:31.064Z,11.25
2022-09-15T16:04:58.625Z,10.32
2022-09-15T16:07:28.874Z,14.93
2022-09-15T16:10:01.024Z,8.95
2022-09-15T16:12:30.817Z,9.18
2022-09-15T16:15:00.848Z,7.88
2022-09-15T16:17:28.463Z,8.88
2022-09-15T16:19:56.155Z,9.95
2022-09-15T16:22:23.913Z,7.72
2022-09-15T16:24:51.589Z,8.68
2022-09-15T16:27:19.241Z,8.40
2022-09-15T16:29:49.149Z,11.63
2022-09-15T16:32:22.304Z,10.15
2022-09-15T16:34:54.329Z,8.90
2022-09-15T16:37:22.050Z,8.52
2022-09-15T16:39:52.118Z,6.80
2022-09-15T16:42:22.250Z,6.78
2022-09-15T16:44:49.758Z,7.82
2022-09-15T16:47:17.235Z,7.85
2022-09-15T16:49:44.783Z,7.93
2022-09-15T16:52:13.510Z,7.75
2022-09-15T16:54:40.942Z,9.65
2022-09-15T16:57:08.444Z,7.63
2022-09-15T16:59:36.139Z,5.80
2022-09-15T17:02:05.594Z,9.27
2022-09-15T17:04:33.018Z,8.35
2022-09-15T17:07:00.595Z,6.65
2022-09-15T17:09:28.010Z,8.32
2022-09-15T17:12:03.978Z,5.32
2022-09-15T17:14:31.476Z,8.02
2022-09-15T17:16:58.926Z,6.13
2022-09-15T17:19:26.384Z,7.90
2022-09-15T17:21:53.980Z,8.93
2022-09-15T17:24:21.459Z,6.55
2022-09-15T17:26:49.117Z,5.90
2022-09-15T17:29:16.663Z,9.60
2022-09-15T17:31:44.419Z,5.88
2022-09-15T17:34:14.497Z,7.68
2022-09-15T17:36:42.230Z,25.00
2022-09-15T17:39:09.720Z,40.55
2022-09-15T17:41:38.628Z,31.95
2022-09-15T17:44:12.143Z,43.38
2022-09-15T17:46:40.007Z,20.77
2022-09-15T17:49:07.513Z,13.85
2022-09-15T17:51:35.151Z,21.25
2022-09-15T17:54:02.873Z,60.53
2022-09-15T17:56:31.009Z,30.45
2022-09-15T18:01:31.604Z,192.23
2022-09-15T18:04:03.760Z,34.95
2022-09-15T18:06:31.284Z,194.15
2022-09-15T18:09:02.183Z,127.07
2022-09-15T18:11:29.645Z,131.32
2022-09-15T18:13:59.428Z,77.75
2022-09-15T18:16:26.894Z,34.53
2022-09-15T18:18:54.355Z,29.77
2022-09-15T18:21:28.620Z,31.25
2022-09-15T18:23:59.005Z,12.25
2022-09-15T18:26:26.973Z,13.77
2022-09-15T18:28:54.812Z,11.90
2022-09-15T18:31:22.678Z,13.20
2022-09-15T18:33:52.345Z,9.23
2022-09-15T18:36:21.871Z,11.30
2022-09-15T18:38:49.446Z,11.15
2022-09-15T18:41:16.986Z,10.23
2022-09-15T18:43:48.799Z,11.40
2022-09-15T18:46:17.489Z,14.57
2022-09-15T18:48:45.108Z,10.32
2022-09-15T18:51:19.724Z,13.18
2022-09-15T18:53:54.227Z,8.18
2022-09-15T18:56:22.132Z,12.55
2022-09-15T18:58:53.712Z,10.75
2022-09-15T19:01:24.276Z,11.15
2022-09-15T19:03:51.880Z,14.05
2022-09-15T19:06:19.347Z,9.88
2022-09-15T19:08:46.900Z,16.88
2022-09-15T19:11:14.608Z,11.45
2022-09-15T19:13:42.156Z,20.38
2022-09-15T19:16:09.966Z,23.17
2022-09-15T19:18:37.584Z,18.75
2022-09-15T19:21:06.809Z,16.83
2022-09-15T19:23:35.939Z,19.65
2022-09-15T19:26:05.346Z,19.58
2022-09-15T19:28:33.443Z,10.23
2022-09-15T19:31:01.085Z,13.10
2022-09-15T19:33:28.800Z,8.82
2022-09-15T19:36:17.090Z,10.15
2022-09-15T19:38:51.535Z,12.18
2022-09-15T19:41:19.007Z,10.40
2022-09-15T19:43:46.773Z,9.48
2022-09-15T19:46:24.069Z,7.25
2022-09-15T19:48:53.406Z,8.17
2022-09-15T19:51:22.093Z,12.73
2022-09-15T19:53:53.093Z,7.97
2022-09-15T19:56:22.814Z,9.65
2022-09-15T19:58:50.399Z,13.18
2022-09-15T20:01:18.198Z,6.65
2022-09-15T20:03:45.729Z,9.13
2022-09-15T20:06:13.233Z,5.45
2022-09-15T20:08:43.069Z,11.82
2022-09-15T20:11:10.633Z,11.45
2022-09-15T20:13:41.439Z,7.60
2022-09-15T20:16:14.275Z,7.25
2022-09-15T20:18:42.956Z,13.00
2022-09-15T20:21:48.618Z,10.65
2022-09-15T20:24:15.913Z,8.02
2022-09-15T20:26:43.464Z,10.05
2022-09-15T20:29:16.095Z,8.95
2022-09-15T20:31:43.809Z,10.75
2022-09-15T20:34:11.300Z,10.65
2022-09-15T20:36:39.463Z,10.05
2022-09-15T20:41:37.069Z,10.27
2022-09-15T20:44:06.066Z,12.80
2022-09-15T20:46:33.642Z,10.73
2022-09-15T20:49:04.903Z,14.40
2022-09-15T20:51:33.757Z,13.82
2022-09-15T20:54:03.479Z,14.15
2022-09-15T20:56:34.778Z,13.27
2022-09-15T20:59:03.463Z,14.93
2022-09-15T21:01:36.709Z,13.90
2022-09-15T21:04:08.799Z,14.48
2022-09-15T21:06:37.221Z,13.85
2022-09-15T21:09:05.887Z,11.40
2022-09-15T21:11:33.434Z,12.38
2022-09-15T21:14:01.451Z,13.93
2022-09-15T21:18:59.587Z,9.82
2022-09-15T21:21:30.167Z,11.82
2022-09-15T21:24:01.824Z,12.63
2022-09-15T21:26:32.619Z,10.77
2022-09-15T21:29:00.404Z,16.38
2022-09-15T21:31:31.134Z,12.43
2022-09-15T21:33:59.443Z,11.93
2022-09-15T21:36:29.585Z,10.35
2022-09-15T21:38:59.269Z,7.22
2022-09-15T21:41:29.913Z,9.20
2022-09-15T21:43:59.054Z,7.60
2022-09-15T21:46:31.906Z,9.48
2022-09-15T21:49:00.258Z,5.63
2022-09-15T21:51:29.387Z,7.53
2022-09-15T21:53:58.668Z,8.23
2022-09-15T21:56:27.421Z,9.07
2022-09-15T21:58:55.267Z,8.82
2022-09-15T22:01:29.271Z,8.40
2022-09-15T22:03:59.139Z,7.07
2022-09-15T22:06:32.377Z,8.95
2022-09-15T22:09:01.563Z,5.65
2022-09-15T22:11:29.369Z,7.60
2022-09-15T22:13:57.630Z,12.60
2022-09-15T22:16:26.186Z,10.77
2022-09-15T22:18:54.269Z,7.13
2022-09-15T22:21:25.085Z,12.80
2022-09-15T22:23:55.395Z,6.95
2022-09-15T22:26:26.224Z,8.02
2022-09-15T22:28:54.364Z,6.20
2022-09-15T22:31:24.497Z,8.60
2022-09-15T22:33:52.587Z,8.95
2022-09-15T22:36:28.580Z,6.03
2022-09-15T22:39:04.601Z,5.65
2022-09-15T22:41:37.713Z,8.57
2022-09-15T22:44:06.447Z,6.18
2022-09-15T22:46:34.202Z,6.10
2022-09-15T22:49:02.076Z,9.60
2022-09-15T22:51:29.593Z,5.80
2022-09-15T22:53:57.742Z,13.30
2022-09-15T22:58:55.306Z,8.43
2022-09-15T23:01:25.050Z,5.72
2022-09-15T23:03:55.694Z,7.43
2022-09-15T23:06:24.100Z,7.82
2022-09-15T23:08:57.060Z,5.00
2022-09-15T23:11:26.755Z,5.53
2022-09-15T23:13:55.346Z,10.98
2022-09-15T23:16:24.279Z,10.77
2022-09-15T23:18:52.891Z,8.50
2022-09-15T23:21:20.762Z,9.85
2022-09-15T23:23:49.232Z,10.48
2022-09-15T23:26:18.885Z,8.18
2022-09-15T23:28:46.656Z,8.02
2022-09-15T23:31:14.408Z,7.53
2022-09-15T23:33:42.693Z,6.90
2022-09-15T23:38:40.791Z,9.00
2022-09-15T23:41:09.059Z,6.80
2022-09-15T23:46:04.822Z,9.15
2022-09-15T23:48:32.598Z,8.68
2022-09-15T23:51:00.695Z,6.80
2022-09-15T23:53:28.425Z,8.57
2022-09-15T23:55:56.150Z,8.10
2022-09-15T23:58:23.803Z,7.65
